Time;durP1;ratioP1;P1;durP2;ratioP2;P2;SDS_P1;SDS_P2;PMS_P1;PMS_P2;Temp;Humidity;BMP_temperature;BMP_pressure;BME280_temperature;BME280_humidity;BME280_pressure;Samples;Min_cycle;Max_cycle;Signal;HPM_P1;HPM_P2
2021/11/26 00:00:06;;;;;;;14.55;8.40;;;5.00;99.90;;;;;;5016315;28;20544;-75
2021/11/26 00:02:32;;;;;;;14.85;8.15;;;4.90;99.90;;;;;;5016325;28;20488;-76
2021/11/26 00:04:58;;;;;;;12.13;6.40;;;4.90;99.90;;;;;;5016221;28;20092;-79
2021/11/26 00:07:24;;;;;;;12.73;7.22;;;5.00;99.90;;;;;;5016410;28;20033;-77
2021/11/26 00:09:51;;;;;;;14.88;8.07;;;5.10;99.90;;;;;;5016130;28;20563;-77
2021/11/26 00:12:18;;;;;;;14.88;8.45;;;5.00;99.90;;;;;;5015985;28;20018;-78
2021/11/26 00:15:09;;;;;;;17.58;8.68;;;5.00;99.90;;;;;;5016042;28;20014;-80
2021/11/26 00:17:34;;;;;;;12.93;7.47;;;5.00;99.90;;;;;;5015761;28;20034;-78
2021/11/26 00:20:01;;;;;;;11.77;6.25;;;4.80;99.90;;;;;;5016508;28;20480;-74
2021/11/26 00:22:26;;;;;;;12.38;6.55;;;4.70;99.90;;;;;;5016144;28;20053;-75
2021/11/26 00:24:53;;;;;;;14.65;6.32;;;4.70;99.90;;;;;;5015832;28;20022;-75
2021/11/26 00:27:19;;;;;;;10.75;6.55;;;4.80;99.90;;;;;;5015801;28;20030;-76
2021/11/26 00:29:45;;;;;;;14.77;6.00;;;4.80;99.90;;;;;;5016266;28;20014;-77
2021/11/26 00:32:11;;;;;;;12.10;6.10;;;4.70;99.90;;;;;;5015640;28;20537;-76
2021/11/26 00:34:36;;;;;;;11.95;6.00;;;4.70;99.90;;;;;;5015693;28;20024;-78
2021/11/26 00:37:02;;;;;;;12.38;6.50;;;4.80;99.90;;;;;;5015609;28;20419;-75
2021/11/26 00:39:28;;;;;;;14.88;6.50;;;4.80;99.90;;;;;;5015595;28;20069;-76
2021/11/26 00:41:54;;;;;;;13.57;6.95;;;4.80;99.90;;;;;;5015697;28;20077;-74
2021/11/26 00:44:19;;;;;;;13.07;6.28;;;4.90;99.90;;;;;;5015272;28;20026;-75
2021/11/26 00:46:45;;;;;;;9.93;5.32;;;4.90;99.90;;;;;;5015416;28;20026;-77
2021/11/26 00:49:11;;;;;;;14.80;5.60;;;4.90;99.90;;;;;;5015660;28;20472;-76
2021/11/26 00:51:37;;;;;;;11.73;6.63;;;5.00;99.90;;;;;;5015537;28;20115;-79
2021/11/26 00:54:03;;;;;;;11.82;6.10;;;5.00;99.90;;;;;;5014284;28;20026;-75
2021/11/26 00:56:29;;;;;;;7.88;4.65;;;5.00;99.90;;;;;;5015555;28;20030;-77
2021/11/26 00:58:54;;;;;;;11.13;5.53;;;4.90;99.90;;;;;;5015498;28;20018;-79
2021/11/26 01:01:20;;;;;;;9.90;5.30;;;4.90;99.90;;;;;;5015356;28;20029;-73
2021/11/26 01:03:45;;;;;;;10.75;5.40;;;4.90;99.90;;;;;;5015353;28;20022;-75
2021/11/26 01:06:11;;;;;;;10.80;5.45;;;4.80;99.90;;;;;;5015575;28;20081;-73
2021/11/26 01:08:39;;;;;;;10.85;5.32;;;4.70;99.90;;;;;;5015248;28;20106;-74
2021/11/26 01:11:05;;;;;;;8.65;4.72;;;4.70;99.90;;;;;;5015366;28;20025;-75
2021/11/26 01:13:30;;;;;;;12.90;5.15;;;4.70;99.90;;;;;;5013607;28;20072;-78
2021/11/26 01:15:56;;;;;;;10.10;5.00;;;4.60;99.90;;;;;;5015426;28;20076;-77
2021/11/26 01:18:22;;;;;;;11.15;5.70;;;4.70;99.90;;;;;;5014839;28;20071;-73
2021/11/26 01:20:48;;;;;;;11.18;5.25;;;4.60;99.90;;;;;;5014785;28;20109;-78
2021/11/26 01:23:14;;;;;;;14.27;5.25;;;4.70;99.90;;;;;;5014799;28;20022;-75
2021/11/26 01:25:40;;;;;;;9.52;5.25;;;4.80;99.90;;;;;;5014703;28;20071;-74
2021/11/26 01:28:07;;;;;;;10.93;5.72;;;4.90;99.90;;;;;;5014656;28;20045;-75
2021/11/26 01:30:36;;;;;;;11.75;6.28;;;4.70;99.90;;;;;;5014820;28;20022;-75
2021/11/26 01:33:07;;;;;;;11.63;5.65;;;4.70;99.90;;;;;;5014870;28;20026;-77
2021/11/26 01:35:33;;;;;;;13.02;5.07;;;4.70;99.90;;;;;;5014892;28;20030;-76
2021/11/26 01:37:59;;;;;;;10.55;5.25;;;4.70;99.90;;;;;;5014742;28;20502;-75
2021/11/26 01:40:25;;;;;;;11.77;5.55;;;4.70;99.90;;;;;;5014461;28;20022;-77
2021/11/26 01:42:54;;;;;;;12.80;5.47;;;4.70;99.90;;;;;;5014864;28;20018;-73
2021/11/26 01:45:20;;;;;;;11.93;5.43;;;4.70;99.90;;;;;;5014149;28;20041;-74
2021/11/26 01:47:46;;;;;;;14.13;5.43;;;4.60;99.90;;;;;;5014331;28;20383;-77
2021/11/26 01:50:14;;;;;;;12.05;5.53;;;4.70;99.90;;;;;;5014277;28;20025;-76
2021/11/26 01:52:40;;;;;;;10.63;4.88;;;4.70;99.90;;;;;;5014166;28;20054;-76
2021/11/26 01:55:08;;;;;;;10.32;5.05;;;4.80;99.90;;;;;;5014692;28;20021;-74
2021/11/26 01:57:34;;;;;;;9.57;4.78;;;4.70;99.90;;;;;;5014658;28;20022;-75
2021/11/26 02:00:01;;;;;;;14.05;5.22;;;4.70;99.90;;;;;;5014096;28;20029;-74
2021/11/26 02:02:26;;;;;;;11.13;4.85;;;4.80;99.90;;;;;;5014022;28;20063;-76
2021/11/26 02:04:52;;;;;;;11.32;5.40;;;4.70;99.90;;;;;;5013623;28;20065;-78
2021/11/26 02:07:18;;;;;;;9.68;5.25;;;4.70;99.90;;;;;;5014243;28;20484;-76
2021/11/26 02:09:43;;;;;;;11.38;5.82;;;4.60;99.90;;;;;;5013927;28;20041;-74
2021/11/26 02:12:10;;;;;;;9.38;5.13;;;4.60;99.90;;;;;;5013802;28;20034;-75
2021/11/26 02:14:36;;;;;;;11.57;4.95;;;4.70;99.90;;;;;;5013822;28;20037;-75
2021/11/26 02:17:02;;;;;;;16.17;6.15;;;4.70;99.90;;;;;;5013800;28;20022;-75
2021/11/26 02:19:28;;;;;;;12.98;5.90;;;4.70;99.90;;;;;;5012540;28;20028;-73
2021/11/26 02:21:55;;;;;;;12.50;5.32;;;4.60;99.90;;;;;;5013744;28;20022;-76
2021/11/26 02:24:21;;;;;;;9.10;4.53;;;4.60;99.90;;;;;;5014296;28;20444;-74
2021/11/26 02:26:48;;;;;;;10.50;4.97;;;4.60;99.90;;;;;;5013692;28;20113;-75
2021/11/26 02:29:16;;;;;;;10.82;5.28;;;4.60;99.90;;;;;;5013649;28;20018;-74
2021/11/26 02:31:42;;;;;;;10.50;5.18;;;4.70;99.90;;;;;;5013550;28;20056;-78
2021/11/26 02:34:08;;;;;;;8.75;4.32;;;4.60;99.90;;;;;;5013588;28;20061;-77
2021/11/26 02:36:34;;;;;;;13.23;4.70;;;4.70;99.90;;;;;;5013597;28;20451;-74
2021/11/26 02:39:01;;;;;;;12.15;4.57;;;4.70;99.90;;;;;;5013514;28;20028;-75
2021/11/26 02:41:27;;;;;;;9.93;4.95;;;4.70;99.90;;;;;;5012222;28;20026;-77
2021/11/26 02:43:52;;;;;;;10.57;5.88;;;4.80;99.90;;;;;;5013609;28;20037;-79
2021/11/26 02:46:18;;;;;;;11.95;4.93;;;4.70;99.90;;;;;;5013009;28;20129;-77
2021/11/26 02:48:45;;;;;;;7.70;3.95;;;4.60;99.90;;;;;;5013403;28;20062;-74
2021/11/26 02:51:12;;;;;;;13.57;6.05;;;4.60;99.90;;;;;;5013344;28;20026;-73
2021/11/26 02:53:38;;;;;;;10.98;4.78;;;4.60;99.90;;;;;;5013633;28;20081;-74
2021/11/26 02:56:04;;;;;;;12.27;4.63;;;4.60;99.90;;;;;;5013336;28;20109;-79
2021/11/26 02:58:30;;;;;;;8.30;4.65;;;4.50;99.90;;;;;;5013360;28;20075;-78
2021/11/26 03:00:59;;;;;;;11.00;4.88;;;4.60;99.90;;;;;;5013299;28;20049;-75
2021/11/26 03:03:25;;;;;;;14.10;5.05;;;4.60;99.90;;;;;;5013281;28;20080;-74
2021/11/26 03:05:57;;;;;;;11.20;4.80;;;4.50;99.90;;;;;;5013259;28;20054;-74
2021/11/26 03:08:23;;;;;;;9.30;4.55;;;4.70;99.90;;;;;;5013315;28;20049;-73
2021/11/26 03:10:48;;;;;;;10.43;5.43;;;4.70;99.90;;;;;;5013152;28;20022;-77
2021/11/26 03:13:14;;;;;;;11.75;5.20;;;4.70;99.90;;;;;;5013158;28;20028;-72
2021/11/26 03:15:42;;;;;;;12.25;4.93;;;4.70;99.90;;;;;;5013157;28;20050;-75
2021/11/26 03:18:09;;;;;;;11.90;4.80;;;4.70;99.90;;;;;;5015414;28;20029;-77
2021/11/26 03:20:34;;;;;;;11.68;4.80;;;4.80;99.90;;;;;;5015784;28;20065;-75
2021/11/26 03:23:00;;;;;;;9.98;4.70;;;4.80;99.90;;;;;;5017540;28;20057;-79
2021/11/26 03:25:26;;;;;;;10.90;4.63;;;4.90;99.90;;;;;;5017217;28;20033;-74
2021/11/26 03:27:52;;;;;;;7.53;3.67;;;4.80;99.90;;;;;;5016954;28;20030;-77
2021/11/26 03:30:20;;;;;;;10.88;4.35;;;4.80;99.90;;;;;;5016861;28;20029;-74
2021/11/26 03:32:47;;;;;;;10.90;3.97;;;4.80;99.90;;;;;;5016719;28;20029;-73
2021/11/26 03:35:14;;;;;;;12.60;4.40;;;4.70;99.90;;;;;;5016790;28;20038;-75
2021/11/26 03:37:40;;;;;;;9.05;4.88;;;4.70;99.90;;;;;;5017008;28;20526;-74
2021/11/26 03:40:09;;;;;;;9.55;4.80;;;4.70;99.90;;;;;;5016691;28;20017;-76
2021/11/26 03:42:35;;;;;;;8.85;4.50;;;4.70;99.90;;;;;;5016701;28;20407;-76
2021/11/26 03:45:03;;;;;;;7.80;4.32;;;4.80;99.90;;;;;;5016418;28;20096;-74
2021/11/26 03:47:28;;;;;;;9.80;4.43;;;4.70;99.90;;;;;;5017095;28;20017;-72
2021/11/26 03:49:54;;;;;;;9.15;4.00;;;4.80;99.90;;;;;;5016512;28;20101;-75
2021/11/26 03:52:20;;;;;;;7.70;3.65;;;4.90;99.90;;;;;;5016645;28;20034;-75
2021/11/26 03:54:46;;;;;;;11.07;3.97;;;4.90;99.90;;;;;;5016407;28;20029;-78
2021/11/26 03:57:12;;;;;;;8.93;4.10;;;4.90;99.90;;;;;;5016647;28;20388;-76
2021/11/26 03:59:37;;;;;;;9.93;4.30;;;4.90;99.90;;;;;;5016324;28;20096;-77
2021/11/26 04:02:04;;;;;;;9.05;3.80;;;4.80;99.90;;;;;;5016523;28;20038;-79
2021/11/26 04:04:30;;;;;;;10.85;3.88;;;4.80;99.90;;;;;;5016787;28;20410;-75
2021/11/26 04:06:57;;;;;;;9.05;3.72;;;4.80;99.90;;;;;;5016203;28;20037;-75
2021/11/26 04:09:22;;;;;;;11.95;4.50;;;4.80;99.90;;;;;;5016116;28;20053;-75
2021/11/26 04:11:48;;;;;;;12.10;5.10;;;4.80;99.90;;;;;;5016006;28;20514;-75
2021/11/26 04:14:14;;;;;;;8.77;4.93;;;4.80;99.90;;;;;;5016064;28;20026;-74
2021/11/26 04:16:40;;;;;;;8.13;3.58;;;4.80;99.90;;;;;;5016287;28;20369;-77
2021/11/26 04:19:05;;;;;;;9.75;3.80;;;4.80;99.90;;;;;;5015952;28;20028;-74
2021/11/26 04:21:32;;;;;;;10.23;4.03;;;4.80;99.90;;;;;;5016483;28;20033;-78
2021/11/26 04:23:58;;;;;;;9.13;4.20;;;4.70;99.90;;;;;;5016182;28;20053;-76
2021/11/26 04:26:24;;;;;;;7.18;3.33;;;4.80;99.90;;;;;;5015861;28;20398;-77
2021/11/26 04:28:50;;;;;;;9.98;3.85;;;4.80;99.90;;;;;;5016000;28;20105;-78
2021/11/26 04:31:15;;;;;;;7.75;4.03;;;4.80;99.90;;;;;;5015686;28;20049;-75
2021/11/26 04:33:41;;;;;;;7.95;3.67;;;4.80;99.90;;;;;;5015969;28;20055;-76
2021/11/26 04:36:07;;;;;;;11.68;3.78;;;4.90;99.90;;;;;;5016136;28;20097;-73
2021/11/26 04:38:34;;;;;;;13.48;4.20;;;4.80;99.90;;;;;;5014327;28;20032;-71
2021/11/26 04:41:00;;;;;;;13.38;4.47;;;4.80;99.90;;;;;;5015629;28;20400;-73
2021/11/26 04:43:26;;;;;;;9.75;3.78;;;4.80;99.90;;;;;;5015424;28;20026;-75
2021/11/26 04:45:52;;;;;;;8.45;3.38;;;4.80;99.90;;;;;;5015236;28;20128;-75
2021/11/26 04:48:19;;;;;;;8.30;3.60;;;4.80;99.90;;;;;;5015712;28;20487;-75
2021/11/26 04:50:46;;;;;;;16.23;3.95;;;4.90;99.90;;;;;;5015295;28;20030;-76
2021/11/26 04:53:11;;;;;;;7.45;4.05;;;4.90;99.90;;;;;;5015293;28;20499;-74
2021/11/26 04:55:37;;;;;;;8.65;4.00;;;4.90;99.90;;;;;;5015267;28;20165;-76
2021/11/26 04:58:03;;;;;;;7.97;3.42;;;5.00;99.90;;;;;;5015229;28;20506;-75
2021/11/26 05:00:29;;;;;;;13.40;3.83;;;5.00;99.90;;;;;;5015168;28;20025;-74
2021/11/26 05:02:54;;;;;;;14.27;4.57;;;5.00;99.90;;;;;;5015107;28;20072;-75
2021/11/26 05:05:20;;;;;;;8.55;4.35;;;5.00;99.90;;;;;;5015369;28;20037;-74
2021/11/26 05:07:46;;;;;;;9.20;3.53;;;5.00;99.90;;;;;;5015020;28;20515;-77
2021/11/26 05:10:14;;;;;;;8.20;3.33;;;4.90;99.90;;;;;;5015013;28;20499;-78
2021/11/26 05:12:45;;;;;;;6.50;3.60;;;4.90;99.90;;;;;;5014876;28;20101;-75
2021/11/26 05:15:11;;;;;;;8.50;3.47;;;5.00;99.90;;;;;;5013435;28;20483;-76
2021/11/26 05:17:37;;;;;;;12.18;3.92;;;5.00;99.90;;;;;;5015147;28;20104;-74
2021/11/26 05:20:05;;;;;;;7.35;3.20;;;5.00;99.90;;;;;;5014831;28;20039;-75
2021/11/26 05:22:30;;;;;;;7.00;3.03;;;5.10;99.90;;;;;;5015112;28;20093;-76
2021/11/26 05:24:56;;;;;;;8.52;3.45;;;5.10;99.90;;;;;;5014739;28;20038;-74
2021/11/26 05:27:22;;;;;;;6.53;3.47;;;5.10;99.90;;;;;;5014977;28;20030;-73
2021/11/26 05:29:47;;;;;;;7.40;3.40;;;5.00;99.90;;;;;;5014667;28;20026;-74
2021/11/26 05:32:13;;;;;;;9.38;3.83;;;5.00;99.90;;;;;;5014813;28;20037;-76
2021/11/26 05:34:39;;;;;;;7.53;3.15;;;5.00;99.90;;;;;;5014586;28;20036;-78
2021/11/26 05:37:05;;;;;;;5.95;3.15;;;5.10;99.90;;;;;;5015055;28;20025;-76
2021/11/26 05:39:30;;;;;;;9.90;3.38;;;5.10;99.90;;;;;;5014606;28;20022;-76
2021/11/26 05:41:56;;;;;;;9.73;4.20;;;5.00;99.90;;;;;;5014576;28;20033;-76
2021/11/26 05:44:22;;;;;;;9.48;3.92;;;5.10;99.90;;;;;;5012919;28;20030;-79
2021/11/26 05:46:48;;;;;;;11.57;4.18;;;5.10;99.90;;;;;;5014381;28;20053;-75
2021/11/26 05:49:13;;;;;;;6.25;4.07;;;5.10;99.90;;;;;;5014291;28;20029;-74
2021/11/26 05:51:39;;;;;;;8.05;3.20;;;5.10;99.90;;;;;;5014466;28;20034;-75
2021/11/26 05:54:04;;;;;;;7.53;3.65;;;5.20;99.90;;;;;;5014177;28;20072;-76
2021/11/26 05:56:30;;;;;;;7.95;3.42;;;5.20;99.90;;;;;;5014709;28;20017;-75
2021/11/26 05:58:56;;;;;;;7.50;3.47;;;5.30;99.90;;;;;;5014642;28;20037;-74
2021/11/26 06:01:21;;;;;;;9.43;3.00;;;5.30;99.90;;;;;;5014362;28;20113;-75
2021/11/26 06:03:47;;;;;;;8.27;3.20;;;5.40;99.90;;;;;;5014030;28;20026;-73
2021/11/26 06:06:13;;;;;;;5.93;2.83;;;5.40;99.90;;;;;;5012779;28;20029;-73
2021/11/26 06:08:39;;;;;;;9.23;2.90;;;5.40;99.90;;;;;;5013991;28;20105;-77
2021/11/26 06:11:04;;;;;;;14.93;6.60;;;5.40;99.90;;;;;;5013906;28;20022;-75
2021/11/26 06:13:30;;;;;;;8.25;3.20;;;5.40;99.90;;;;;;5014187;28;20438;-74
2021/11/26 06:15:56;;;;;;;11.52;3.92;;;5.50;99.90;;;;;;5013871;28;20045;-75
2021/11/26 06:18:22;;;;;;;7.00;3.17;;;5.50;99.90;;;;;;5013889;28;20026;-76
2021/11/26 06:20:48;;;;;;;10.57;5.28;;;5.50;99.90;;;;;;5013816;28;20076;-76
2021/11/26 06:23:14;;;;;;;8.32;4.55;;;5.50;99.90;;;;;;5014018;28;20041;-78
2021/11/26 06:25:39;;;;;;;7.40;3.50;;;5.50;99.90;;;;;;5013730;28;20029;-75
2021/11/26 06:28:05;;;;;;;9.07;3.83;;;5.50;99.90;;;;;;5013719;28;20057;-76
2021/11/26 06:30:31;;;;;;;7.82;2.97;;;5.60;99.90;;;;;;5013689;28;20483;-74
2021/11/26 06:32:57;;;;;;;10.73;3.25;;;5.60;99.90;;;;;;5013561;28;20029;-75
2021/11/26 06:35:24;;;;;;;7.25;3.40;;;5.60;99.90;;;;;;5013608;28;20080;-72
2021/11/26 06:37:52;;;;;;;11.48;4.05;;;5.50;99.90;;;;;;5013592;28;20088;-76
2021/11/26 06:40:19;;;;;;;8.50;3.67;;;5.50;99.90;;;;;;5013547;28;20036;-75
2021/11/26 06:42:45;;;;;;;7.50;4.03;;;5.60;99.90;;;;;;5012150;28;20068;-76
2021/11/26 06:45:13;;;;;;;10.20;4.30;;;5.60;99.90;;;;;;5013368;28;20045;-72
2021/11/26 06:47:39;;;;;;;8.30;4.15;;;5.60;99.90;;;;;;5013469;28;20470;-75
2021/11/26 06:50:06;;;;;;;14.00;4.88;;;5.60;99.90;;;;;;5013390;28;20022;-72
2021/11/26 06:52:32;;;;;;;11.50;4.30;;;5.60;99.90;;;;;;5012444;28;20104;-76
2021/11/26 06:54:58;;;;;;;11.85;4.20;;;5.60;99.90;;;;;;5012088;28;20432;-74
2021/11/26 06:57:23;;;;;;;8.55;3.63;;;5.60;99.90;;;;;;5013644;28;20018;-74
2021/11/26 06:59:49;;;;;;;9.50;4.18;;;5.60;99.90;;;;;;5013608;28;20022;-74
2021/11/26 07:02:15;;;;;;;6.60;3.28;;;5.60;99.90;;;;;;5013301;28;20037;-77
2021/11/26 07:04:43;;;;;;;8.52;2.60;;;5.60;99.90;;;;;;5012014;28;20030;-77
2021/11/26 07:07:09;;;;;;;6.43;2.33;;;5.60;99.90;;;;;;5012064;28;20037;-74
2021/11/26 07:09:35;;;;;;;8.00;2.42;;;5.60;99.90;;;;;;5013285;28;20026;-75
2021/11/26 07:12:01;;;;;;;6.15;2.70;;;5.60;99.90;;;;;;5013186;28;20426;-76
2021/11/26 07:14:27;;;;;;;7.22;2.50;;;5.60;99.90;;;;;;5013228;28;20022;-72
2021/11/26 07:16:52;;;;;;;6.93;2.85;;;5.50;99.90;;;;;;5013165;28;20390;-77
2021/11/26 07:19:18;;;;;;;10.27;3.17;;;5.60;99.90;;;;;;5013217;28;20018;-73
2021/11/26 07:21:44;;;;;;;11.93;3.28;;;5.60;99.90;;;;;;5013408;28;20088;-77
2021/11/26 07:24:10;;;;;;;6.93;2.80;;;5.60;99.90;;;;;;5013392;28;20072;-73
2021/11/26 07:26:36;;;;;;;8.05;2.65;;;5.60;99.90;;;;;;5013074;28;20537;-76
2021/11/26 07:29:02;;;;;;;5.10;2.60;;;5.60;99.90;;;;;;5013045;28;20026;-76
2021/11/26 07:31:27;;;;;;;10.80;2.83;;;5.70;99.90;;;;;;5013001;28;20034;-74
2021/11/26 07:33:53;;;;;;;12.73;2.88;;;5.70;99.90;;;;;;5013035;28;20109;-77
2021/11/26 07:36:19;;;;;;;5.53;2.50;;;5.70;99.90;;;;;;5013075;28;20022;-76
2021/11/26 07:38:44;;;;;;;8.25;2.70;;;5.70;99.90;;;;;;5013236;28;20022;-78
2021/11/26 07:41:10;;;;;;;10.02;3.25;;;5.70;99.90;;;;;;5013229;28;20021;-75
2021/11/26 07:43:35;;;;;;;11.48;2.67;;;5.80;99.90;;;;;;5013128;28;20021;-74
2021/11/26 07:46:02;;;;;;;5.82;2.45;;;5.80;99.90;;;;;;5012603;28;20127;-74
2021/11/26 07:48:28;;;;;;;5.88;2.42;;;5.80;99.90;;;;;;5013186;28;20026;-74
2021/11/26 07:50:55;;;;;;;7.47;2.20;;;5.80;99.90;;;;;;5013347;28;20036;-77
2021/11/26 07:53:21;;;;;;;4.90;2.00;;;5.90;99.90;;;;;;5013135;28;20045;-75
2021/11/26 07:55:49;;;;;;;4.53;1.95;;;5.90;99.90;;;;;;5012914;28;20072;-76
2021/11/26 07:58:16;;;;;;;5.30;2.10;;;5.90;99.90;;;;;;5012818;28;20022;-75
2021/11/26 08:00:41;;;;;;;11.93;4.18;;;6.00;99.90;;;;;;5012864;28;20026;-75
2021/11/26 08:03:09;;;;;;;10.23;2.88;;;6.00;99.90;;;;;;5014849;28;20046;-74
2021/11/26 08:05:34;;;;;;;7.32;3.05;;;6.00;99.90;;;;;;5016255;28;20076;-73
2021/11/26 08:08:01;;;;;;;6.75;2.75;;;6.10;99.90;;;;;;5016231;28;20036;-75
2021/11/26 08:10:27;;;;;;;6.57;2.88;;;6.00;99.90;;;;;;5016136;28;20494;-77
2021/11/26 08:12:52;;;;;;;11.35;6.43;;;6.10;99.90;;;;;;5016064;28;20029;-74
2021/11/26 08:15:19;;;;;;;7.15;2.50;;;6.10;99.90;;;;;;5016096;28;20368;-75
2021/11/26 08:17:46;;;;;;;14.73;7.93;;;6.10;99.90;;;;;;5016012;28;20431;-75
2021/11/26 08:20:15;;;;;;;7.63;2.75;;;6.20;99.90;;;;;;5016002;28;20014;-76
2021/11/26 08:22:41;;;;;;;5.13;2.67;;;6.20;99.90;;;;;;5015965;28;20451;-75
2021/11/26 08:25:09;;;;;;;7.45;2.00;;;6.20;99.90;;;;;;5015879;28;20022;-72
2021/11/26 08:27:35;;;;;;;5.65;1.85;;;6.30;99.90;;;;;;5015822;28;20034;-74
2021/11/26 08:30:00;;;;;;;6.63;3.50;;;6.30;99.90;;;;;;5015818;28;20053;-74
2021/11/26 08:32:26;;;;;;;7.88;3.20;;;6.30;99.90;;;;;;5015706;28;20065;-72
2021/11/26 08:34:52;;;;;;;8.18;2.50;;;6.30;99.90;;;;;;5015718;28;20148;-74
2021/11/26 08:37:18;;;;;;;5.97;2.38;;;6.30;99.90;;;;;;5015452;28;20037;-75
2021/11/26 08:39:43;;;;;;;6.20;2.38;;;6.30;99.90;;;;;;5015917;28;20033;-75
2021/11/26 08:42:09;;;;;;;9.27;2.95;;;6.30;99.90;;;;;;5015637;28;20032;-72
2021/11/26 08:44:35;;;;;;;5.63;2.15;;;6.40;99.90;;;;;;5015578;28;20470;-76
2021/11/26 08:47:00;;;;;;;8.13;2.38;;;6.40;99.90;;;;;;5015750;28;20108;-74
2021/11/26 08:49:26;;;;;;;7.55;3.28;;;6.40;99.90;;;;;;5015680;28;20029;-73
2021/11/26 08:51:54;;;;;;;5.32;1.95;;;6.40;99.90;;;;;;5015585;28;20497;-75
2021/11/26 08:54:24;;;;;;;9.30;3.10;;;6.40;99.90;;;;;;5014033;28;20026;-74
2021/11/26 08:56:53;;;;;;;4.83;2.33;;;6.50;99.90;;;;;;5015629;28;20472;-72
2021/11/26 08:59:19;;;;;;;10.88;2.88;;;6.50;99.90;;;;;;5015288;28;20013;-74
2021/11/26 09:01:45;;;;;;;7.38;2.50;;;6.50;99.90;;;;;;5015219;28;20030;-71
2021/11/26 09:04:12;;;;;;;12.68;3.70;;;6.60;99.90;;;;;;5015450;28;20482;-71
2021/11/26 09:06:38;;;;;;;10.88;2.88;;;6.50;99.90;;;;;;5015090;28;20072;-71
2021/11/26 09:09:05;;;;;;;11.25;3.40;;;6.60;99.90;;;;;;5015334;28;20104;-73
2021/11/26 09:11:31;;;;;;;10.38;4.18;;;6.70;99.90;;;;;;5015008;28;20026;-71
2021/11/26 09:13:57;;;;;;;13.02;5.13;;;6.70;99.90;;;;;;5014188;28;20096;-72
2021/11/26 09:16:22;;;;;;;8.63;3.53;;;6.80;99.90;;;;;;5014907;28;20037;-73
2021/11/26 09:18:49;;;;;;;11.05;4.47;;;6.80;99.90;;;;;;5014929;28;20014;-72
2021/11/26 09:21:15;;;;;;;6.38;2.53;;;6.90;99.90;;;;;;5014880;28;20511;-74
2021/11/26 09:23:41;;;;;;;9.57;3.13;;;6.90;99.90;;;;;;5015110;28;20026;-73
2021/11/26 09:26:07;;;;;;;7.68;3.47;;;6.90;99.90;;;;;;5015060;28;20026;-74
2021/11/26 09:28:33;;;;;;;13.82;3.35;;;7.00;99.90;;;;;;5015023;28;20037;-72
2021/11/26 09:30:59;;;;;;;5.85;2.60;;;7.00;99.90;;;;;;5014901;28;20032;-73
2021/11/26 09:33:32;;;;;;;9.80;3.40;;;7.10;99.90;;;;;;5014606;28;20017;-73
2021/11/26 09:35:58;;;;;;;12.25;4.80;;;7.10;99.90;;;;;;5013062;28;20030;-72
2021/11/26 09:38:24;;;;;;;12.30;3.38;;;7.10;99.90;;;;;;5014546;28;20026;-71
2021/11/26 09:40:50;;;;;;;9.38;3.67;;;7.20;99.90;;;;;;5014764;28;20029;-73
2021/11/26 09:43:16;;;;;;;10.82;2.78;;;7.20;99.90;;;;;;5014634;28;20022;-71
2021/11/26 09:45:41;;;;;;;14.32;3.95;;;7.20;99.90;;;;;;5014308;28;20045;-72
2021/11/26 09:48:08;;;;;;;11.02;2.97;;;7.30;99.90;;;;;;5014320;28;20476;-72
2021/11/26 09:50:33;;;;;;;8.90;2.35;;;7.30;99.90;;;;;;5014348;28;20056;-71
2021/11/26 09:53:21;;;;;;;8.57;2.83;;;7.40;99.90;;;;;;5014241;28;20021;-71
2021/11/26 09:55:55;;;;;;;7.05;2.50;;;7.50;99.90;;;;;;5014813;28;20053;-71
2021/11/26 09:58:23;;;;;;;8.80;3.03;;;7.50;99.90;;;;;;5014554;28;20092;-75
2021/11/26 10:00:50;;;;;;;9.63;3.75;;;7.50;99.90;;;;;;5014203;28;20030;-73
2021/11/26 10:03:16;;;;;;;10.95;3.22;;;7.50;99.90;;;;;;5014134;28;20029;-73
2021/11/26 10:05:42;;;;;;;10.40;2.90;;;7.50;99.90;;;;;;5014570;28;20018;-72
2021/11/26 10:08:07;;;;;;;6.55;2.55;;;7.60;99.90;;;;;;5014007;28;20495;-72
2021/11/26 10:10:40;;;;;;;6.18;2.92;;;7.70;99.90;;;;;;5014051;28;20037;-71
2021/11/26 10:13:11;;;;;;;12.80;3.20;;;7.80;99.90;;;;;;5014139;28;20490;-71
2021/11/26 10:15:41;;;;;;;7.88;3.22;;;7.90;99.90;;;;;;5013937;28;20026;-71
2021/11/26 10:18:22;;;;;;;6.50;2.33;;;8.00;99.90;;;;;;5013876;28;20052;-72
2021/11/26 10:21:06;;;;;;;7.30;2.35;;;7.90;99.90;;;;;;5014122;28;20512;-72
2021/11/26 10:23:35;;;;;;;10.43;2.40;;;8.00;99.90;;;;;;5012252;28;20439;-73
2021/11/26 10:26:18;;;;;;;8.80;2.60;;;8.00;99.90;;;;;;5013603;28;20030;-71
2021/11/26 10:28:51;;;;;;;5.55;2.67;;;8.00;99.90;;;;;;5014003;28;20049;-73
2021/11/26 10:31:28;;;;;;;11.30;3.70;;;8.00;99.90;;;;;;5013625;28;20409;-71
2021/11/26 10:33:55;;;;;;;6.53;2.85;;;8.00;99.90;;;;;;5013720;28;20018;-73
2021/11/26 10:36:21;;;;;;;9.63;4.05;;;8.00;99.90;;;;;;5013900;28;20049;-73
2021/11/26 10:38:47;;;;;;;8.68;2.92;;;8.00;99.90;;;;;;5013863;28;20030;-71
2021/11/26 10:41:15;;;;;;;8.20;2.88;;;8.00;99.90;;;;;;5013561;28;20084;-73
2021/11/26 10:59:37;;;;;;;8.73;2.60;;;8.10;99.90;;;;;;5013118;28;20025;-70
2021/11/26 11:02:03;;;;;;;9.10;2.63;;;8.20;99.90;;;;;;5013661;28;20096;-74
2021/11/26 11:04:30;;;;;;;10.57;3.30;;;8.30;99.90;;;;;;5013853;28;20487;-73
2021/11/26 11:07:07;;;;;;;10.40;2.75;;;8.40;99.90;;;;;;5013584;28;20057;-70
2021/11/26 11:09:46;;;;;;;8.00;2.72;;;8.50;99.90;;;;;;5013596;28;20022;-74
2021/11/26 11:12:13;;;;;;;7.90;2.67;;;8.60;99.90;;;;;;5013756;28;20018;-72
2021/11/26 11:14:40;;;;;;;12.10;3.47;;;8.60;99.90;;;;;;5013248;28;20029;-72
2021/11/26 11:17:06;;;;;;;7.22;3.30;;;8.70;99.90;;;;;;5013443;28;20080;-71
2021/11/26 11:19:33;;;;;;;9.60;2.33;;;8.70;99.90;;;;;;5013479;28;20033;-73
2021/11/26 11:21:59;;;;;;;8.88;2.70;;;8.80;99.90;;;;;;5013174;28;20026;-71
2021/11/26 11:24:27;;;;;;;9.20;2.67;;;8.90;99.90;;;;;;5011881;28;20018;-72
2021/11/26 11:26:53;;;;;;;9.32;2.45;;;8.90;99.90;;;;;;5013695;28;20033;-70
2021/11/26 11:29:23;;;;;;;8.40;2.78;;;8.90;99.90;;;;;;5013136;28;20029;-71
2021/11/26 11:31:50;;;;;;;5.20;2.78;;;8.90;99.90;;;;;;5013074;28;20021;-73
2021/11/26 11:34:20;;;;;;;9.52;3.20;;;9.00;99.90;;;;;;5013653;28;20022;-71
2021/11/26 11:36:47;;;;;;;10.82;2.92;;;9.00;99.90;;;;;;5013133;28;20107;-72
2021/11/26 11:39:13;;;;;;;5.80;2.30;;;9.10;99.90;;;;;;5015297;28;20100;-72
2021/11/26 11:41:50;;;;;;;6.30;2.63;;;9.10;99.90;;;;;;5017163;28;20034;-70
2021/11/26 11:44:35;;;;;;;9.07;3.15;;;9.10;99.90;;;;;;5016974;28;20026;-72
2021/11/26 11:47:19;;;;;;;9.45;3.20;;;9.10;99.90;;;;;;5016920;28;20036;-71
2021/11/26 11:49:45;;;;;;;9.35;2.40;;;9.20;99.90;;;;;;5016880;28;20479;-73
2021/11/26 11:52:13;;;;;;;11.25;2.72;;;9.20;99.90;;;;;;5016466;28;20026;-75
2021/11/26 11:54:45;;;;;;;7.47;3.00;;;9.30;99.90;;;;;;5016443;28;20045;-69
2021/11/26 11:57:27;;;;;;;9.57;3.72;;;9.20;99.90;;;;;;5016774;28;20025;-71
2021/11/26 12:00:13;;;;;;;9.15;2.92;;;9.30;99.90;;;;;;5016995;28;20018;-72
2021/11/26 12:02:39;;;;;;;6.72;2.17;;;9.30;99.90;;;;;;5016360;28;20049;-75
2021/11/26 12:05:05;;;;;;;7.07;3.30;;;9.40;99.90;;;;;;5016068;28;20108;-77
2021/11/26 12:07:32;;;;;;;5.15;1.95;;;9.50;99.90;;;;;;5016222;28;20029;-70
2021/11/26 12:10:13;;;;;;;10.27;2.25;;;9.60;99.90;;;;;;5016206;28;20028;-75
2021/11/26 12:12:53;;;;;;;5.80;1.95;;;9.60;99.90;;;;;;5016385;28;20496;-72
2021/11/26 12:15:33;;;;;;;6.13;2.03;;;9.70;99.90;;;;;;5016455;28;20100;-72
2021/11/26 12:18:02;;;;;;;8.73;2.45;;;9.70;99.90;;;;;;5016454;28;20092;-74
2021/11/26 12:20:29;;;;;;;4.35;2.30;;;9.70;99.90;;;;;;5016016;28;20021;-72
2021/11/26 12:23:03;;;;;;;10.30;2.45;;;9.70;99.90;;;;;;5015991;28;20121;-72
2021/11/26 12:28:04;;;;;;;11.63;3.60;;;9.80;99.90;;;;;;5015861;28;20381;-73
2021/11/26 12:30:30;;;;;;;8.18;3.10;;;9.70;99.90;;;;;;5014298;28;20109;-73
2021/11/26 12:32:56;;;;;;;17.95;3.17;;;9.60;99.90;;;;;;5015687;28;20101;-72
2021/11/26 12:35:22;;;;;;;10.85;2.90;;;9.50;99.90;;;;;;5015767;28;20022;-72
2021/11/26 12:37:55;;;;;;;9.02;2.80;;;9.50;99.90;;;;;;5016203;28;20053;-72
2021/11/26 12:40:23;;;;;;;11.40;4.00;;;9.40;99.90;;;;;;5015971;28;20022;-71
2021/11/26 12:42:58;;;;;;;12.30;4.15;;;9.40;99.90;;;;;;5015568;28;20029;-72
2021/11/26 12:45:25;;;;;;;10.18;3.30;;;9.50;99.90;;;;;;5015460;28;20045;-73
2021/11/26 12:48:20;;;;;;;9.75;2.85;;;9.50;99.90;;;;;;5015780;28;20506;-73
2021/11/26 12:53:26;;;;;;;11.65;3.30;;;9.70;99.90;;;;;;5015427;28;20037;-73
2021/11/26 12:56:00;;;;;;;10.95;4.20;;;9.70;99.90;;;;;;5015662;28;20026;-71
2021/11/26 12:58:28;;;;;;;13.77;3.20;;;9.80;99.90;;;;;;5015559;28;20026;-71
2021/11/26 13:01:06;;;;;;;8.80;2.67;;;9.80;99.90;;;;;;5015599;28;20047;-72
2021/11/26 13:03:44;;;;;;;8.48;2.95;;;9.80;99.90;;;;;;5015820;28;20029;-74
2021/11/26 13:06:10;;;;;;;12.50;2.83;;;9.90;99.90;;;;;;5015442;28;20080;-71
2021/11/26 13:08:37;;;;;;;9.35;2.83;;;9.90;99.90;;;;;;5015100;28;20022;-72
2021/11/26 13:11:04;;;;;;;8.60;2.30;;;10.00;99.90;;;;;;5015247;28;20471;-70
2021/11/26 13:13:32;;;;;;;11.88;3.05;;;10.00;99.90;;;;;;5015011;28;20014;-73